sensor_id;sensor_type;location;lat;lon;timestamp;pressure;altitude;pressure_sealevel;temperature;humidity
69306;BME280;56427;51.580;4.656;2022-08-02T00:00:46;101849.34;;;16.61;74.67
69306;BME280;56427;51.580;4.656;2022-08-02T00:03:11;101846.09;;;16.29;74.30
69306;BME280;56427;51.580;4.656;2022-08-02T00:05:37;101844.28;;;16.30;74.90
69306;BME280;56427;51.580;4.656;2022-08-02T00:08:02;101846.25;;;16.28;75.14
69306;BME280;56427;51.580;4.656;2022-08-02T00:10:28;101849.00;;;16.26;75.56
69306;BME280;56427;51.580;4.656;2022-08-02T00:12:53;101847.91;;;16.19;75.57
69306;BME280;56427;51.580;4.656;2022-08-02T00:15:19;101845.97;;;16.31;75.65
69306;BME280;56427;51.580;4.656;2022-08-02T00:17:44;101845.16;;;16.21;75.36
69306;BME280;56427;51.580;4.656;2022-08-02T00:20:10;101850.69;;;16.08;75.33
69306;BME280;56427;51.580;4.656;2022-08-02T00:22:36;101853.31;;;15.98;76.26
69306;BME280;56427;51.580;4.656;2022-08-02T00:25:02;101846.69;;;16.04;76.11
69306;BME280;56427;51.580;4.656;2022-08-02T00:27:27;101836.22;;;16.04;75.85
69306;BME280;56427;51.580;4.656;2022-08-02T00:29:53;101837.03;;;16.14;75.84
69306;BME280;56427;51.580;4.656;2022-08-02T00:32:20;101843.09;;;16.14;75.33
69306;BME280;56427;51.580;4.656;2022-08-02T00:34:46;101846.13;;;16.10;75.62
69306;BME280;56427;51.580;4.656;2022-08-02T00:37:11;101837.72;;;15.96;76.37
69306;BME280;56427;51.580;4.656;2022-08-02T00:39:36;101836.78;;;15.97;76.08
69306;BME280;56427;51.580;4.656;2022-08-02T00:42:02;101829.75;;;15.88;76.54
69306;BME280;56427;51.580;4.656;2022-08-02T00:44:27;101820.78;;;15.91;76.19
69306;BME280;56427;51.580;4.656;2022-08-02T00:46:53;101814.72;;;15.90;76.85
69306;BME280;56427;51.580;4.656;2022-08-02T00:49:18;101813.75;;;15.81;76.62
69306;BME280;56427;51.580;4.656;2022-08-02T00:51:43;101808.66;;;15.80;76.34
69306;BME280;56427;51.580;4.656;2022-08-02T00:54:09;101803.81;;;15.65;76.50
69306;BME280;56427;51.580;4.656;2022-08-02T00:56:34;101804.69;;;15.76;76.86
69306;BME280;56427;51.580;4.656;2022-08-02T00:59:00;101802.84;;;15.67;76.84
69306;BME280;56427;51.580;4.656;2022-08-02T01:01:26;101810.56;;;15.68;77.38
69306;BME280;56427;51.580;4.656;2022-08-02T01:04:08;101819.78;;;15.53;77.54
69306;BME280;56427;51.580;4.656;2022-08-02T01:06:35;101816.19;;;15.63;77.11
69306;BME280;56427;51.580;4.656;2022-08-02T01:09:01;101814.25;;;15.56;77.08
69306;BME280;56427;51.580;4.656;2022-08-02T01:11:28;101817.03;;;15.54;77.55
69306;BME280;56427;51.580;4.656;2022-08-02T01:14:00;101808.44;;;15.33;78.09
69306;BME280;56427;51.580;4.656;2022-08-02T01:16:32;101803.22;;;15.42;77.01
69306;BME280;56427;51.580;4.656;2022-08-02T01:19:19;101807.25;;;15.46;77.75
69306;BME280;56427;51.580;4.656;2022-08-02T01:22:13;101802.00;;;15.37;77.91
69306;BME280;56427;51.580;4.656;2022-08-02T01:30:28;101807.50;;;15.43;77.55
69306;BME280;56427;51.580;4.656;2022-08-02T01:32:59;101813.97;;;15.30;77.91
69306;BME280;56427;51.580;4.656;2022-08-02T01:35:37;101808.44;;;15.33;77.71
69306;BME280;56427;51.580;4.656;2022-08-02T01:38:10;101807.75;;;15.31;77.84
69306;BME280;56427;51.580;4.656;2022-08-02T01:40:41;101807.50;;;15.34;77.83
69306;BME280;56427;51.580;4.656;2022-08-02T01:43:09;101798.97;;;15.32;77.13
69306;BME280;56427;51.580;4.656;2022-08-02T01:45:37;101792.88;;;15.31;77.33
69306;BME280;56427;51.580;4.656;2022-08-02T01:48:04;101787.09;;;15.18;77.98
69306;BME280;56427;51.580;4.656;2022-08-02T01:50:33;101793.03;;;15.20;78.14
69306;BME280;56427;51.580;4.656;2022-08-02T01:53:07;101789.69;;;15.18;77.86
69306;BME280;56427;51.580;4.656;2022-08-02T01:58:03;101790.66;;;15.07;78.45
69306;BME280;56427;51.580;4.656;2022-08-02T02:00:34;101789.56;;;15.19;78.67
69306;BME280;56427;51.580;4.656;2022-08-02T02:03:01;101793.84;;;15.20;77.91
69306;BME280;56427;51.580;4.656;2022-08-02T02:05:31;101780.47;;;15.04;78.27
69306;BME280;56427;51.580;4.656;2022-08-02T02:07:58;101782.13;;;15.05;78.53
69306;BME280;56427;51.580;4.656;2022-08-02T02:10:29;101785.59;;;15.15;78.00
69306;BME280;56427;51.580;4.656;2022-08-02T02:12:57;101783.38;;;15.20;78.04
69306;BME280;56427;51.580;4.656;2022-08-02T02:15:25;101781.31;;;15.14;77.53
69306;BME280;56427;51.580;4.656;2022-08-02T02:17:52;101774.72;;;15.10;77.65
69306;BME280;56427;51.580;4.656;2022-08-02T02:20:19;101772.66;;;15.23;77.87
69306;BME280;56427;51.580;4.656;2022-08-02T02:22:46;101779.78;;;15.02;78.46
69306;BME280;56427;51.580;4.656;2022-08-02T02:25:13;101772.06;;;15.00;78.33
69306;BME280;56427;51.580;4.656;2022-08-02T02:27:51;101771.09;;;15.01;78.35
69306;BME280;56427;51.580;4.656;2022-08-02T02:30:18;101775.66;;;15.09;78.40
69306;BME280;56427;51.580;4.656;2022-08-02T02:32:46;101772.09;;;15.10;78.09
69306;BME280;56427;51.580;4.656;2022-08-02T02:35:12;101771.94;;;15.02;78.17
69306;BME280;56427;51.580;4.656;2022-08-02T02:37:40;101767.25;;;15.05;78.28
69306;BME280;56427;51.580;4.656;2022-08-02T02:40:09;101759.00;;;15.00;78.52
69306;BME280;56427;51.580;4.656;2022-08-02T02:42:35;101767.09;;;14.97;79.52
69306;BME280;56427;51.580;4.656;2022-08-02T02:45:03;101765.31;;;14.98;79.23
69306;BME280;56427;51.580;4.656;2022-08-02T02:47:30;101765.25;;;14.78;79.95
69306;BME280;56427;51.580;4.656;2022-08-02T02:49:57;101756.97;;;14.73;80.36
69306;BME280;56427;51.580;4.656;2022-08-02T02:52:24;101753.38;;;14.64;80.68
69306;BME280;56427;51.580;4.656;2022-08-02T02:54:51;101752.00;;;14.70;80.50
69306;BME280;56427;51.580;4.656;2022-08-02T02:57:18;101758.09;;;14.70;80.55
69306;BME280;56427;51.580;4.656;2022-08-02T02:59:45;101765.66;;;14.83;80.22
69306;BME280;56427;51.580;4.656;2022-08-02T03:02:11;101752.59;;;14.83;80.20
69306;BME280;56427;51.580;4.656;2022-08-02T03:04:39;101748.75;;;14.78;80.70
69306;BME280;56427;51.580;4.656;2022-08-02T03:07:05;101750.44;;;14.88;79.99
69306;BME280;56427;51.580;4.656;2022-08-02T03:09:30;101745.06;;;14.90;80.48
69306;BME280;56427;51.580;4.656;2022-08-02T03:11:56;101751.09;;;14.81;80.75
69306;BME280;56427;51.580;4.656;2022-08-02T03:14:22;101743.13;;;14.82;80.42
69306;BME280;56427;51.580;4.656;2022-08-02T03:16:50;101739.66;;;14.82;80.72
69306;BME280;56427;51.580;4.656;2022-08-02T03:19:16;101734.03;;;14.86;80.99
69306;BME280;56427;51.580;4.656;2022-08-02T03:21:44;101738.25;;;14.68;81.16
69306;BME280;56427;51.580;4.656;2022-08-02T03:24:11;101744.72;;;14.73;81.04
69306;BME280;56427;51.580;4.656;2022-08-02T03:26:37;101756.03;;;14.74;81.00
69306;BME280;56427;51.580;4.656;2022-08-02T03:29:03;101755.06;;;14.75;81.35
69306;BME280;56427;51.580;4.656;2022-08-02T03:31:28;101755.50;;;14.90;81.15
69306;BME280;56427;51.580;4.656;2022-08-02T03:33:58;101756.88;;;14.84;81.59
69306;BME280;56427;51.580;4.656;2022-08-02T03:36:26;101742.72;;;14.87;80.98
69306;BME280;56427;51.580;4.656;2022-08-02T03:38:52;101731.66;;;14.73;81.91
69306;BME280;56427;51.580;4.656;2022-08-02T03:41:19;101735.94;;;14.75;81.90
69306;BME280;56427;51.580;4.656;2022-08-02T03:43:46;101725.75;;;14.71;82.81
69306;BME280;56427;51.580;4.656;2022-08-02T03:46:14;101722.03;;;14.64;83.01
69306;BME280;56427;51.580;4.656;2022-08-02T03:48:40;101715.56;;;14.68;82.52
69306;BME280;56427;51.580;4.656;2022-08-02T03:51:05;101723.56;;;14.77;82.04
69306;BME280;56427;51.580;4.656;2022-08-02T03:53:31;101714.25;;;14.84;81.96
69306;BME280;56427;51.580;4.656;2022-08-02T03:55:58;101711.78;;;14.82;82.31
69306;BME280;56427;51.580;4.656;2022-08-02T03:58:24;101722.06;;;14.74;83.03
69306;BME280;56427;51.580;4.656;2022-08-02T04:00:55;101715.34;;;14.81;82.86
69306;BME280;56427;51.580;4.656;2022-08-02T04:03:22;101721.16;;;15.04;82.30
69306;BME280;56427;51.580;4.656;2022-08-02T04:05:47;101713.03;;;14.98;82.99
69306;BME280;56427;51.580;4.656;2022-08-02T04:08:13;101696.75;;;14.75;84.64
69306;BME280;56427;51.580;4.656;2022-08-02T04:10:39;101697.69;;;14.33;86.11
69306;BME280;56427;51.580;4.656;2022-08-02T04:13:25;101692.75;;;14.09;87.46
69306;BME280;56427;51.580;4.656;2022-08-02T04:15:55;101689.97;;;14.01;88.00
69306;BME280;56427;51.580;4.656;2022-08-02T04:18:24;101695.69;;;14.15;87.76
69306;BME280;56427;51.580;4.656;2022-08-02T04:20:54;101694.06;;;14.24;87.44
69306;BME280;56427;51.580;4.656;2022-08-02T04:23:22;101695.72;;;14.25;87.29
69306;BME280;56427;51.580;4.656;2022-08-02T04:25:48;101692.59;;;14.31;87.34
69306;BME280;56427;51.580;4.656;2022-08-02T04:28:15;101693.97;;;14.35;86.79
69306;BME280;56427;51.580;4.656;2022-08-02T04:30:41;101691.78;;;14.31;86.85
69306;BME280;56427;51.580;4.656;2022-08-02T04:33:06;101700.88;;;14.36;86.63
69306;BME280;56427;51.580;4.656;2022-08-02T04:35:32;101712.47;;;14.84;85.73
69306;BME280;56427;51.580;4.656;2022-08-02T04:37:58;101704.25;;;15.18;82.81
69306;BME280;56427;51.580;4.656;2022-08-02T04:40:23;101704.81;;;15.22;82.93
69306;BME280;56427;51.580;4.656;2022-08-02T04:42:49;101710.91;;;14.82;84.35
69306;BME280;56427;51.580;4.656;2022-08-02T04:45:14;101715.44;;;14.70;85.40
69306;BME280;56427;51.580;4.656;2022-08-02T04:47:40;101715.81;;;14.65;85.62
69306;BME280;56427;51.580;4.656;2022-08-02T04:50:06;101710.09;;;14.81;86.15
69306;BME280;56427;51.580;4.656;2022-08-02T04:52:31;101718.16;;;15.38;84.41
69306;BME280;56427;51.580;4.656;2022-08-02T04:54:57;101723.38;;;16.34;80.99
69306;BME280;56427;51.580;4.656;2022-08-02T04:57:22;101726.88;;;17.08;76.56
69306;BME280;56427;51.580;4.656;2022-08-02T05:00:07;101726.00;;;17.18;74.98
69306;BME280;56427;51.580;4.656;2022-08-02T05:02:33;101717.25;;;17.09;75.89
69306;BME280;56427;51.580;4.656;2022-08-02T05:04:59;101721.41;;;17.20;75.74
69306;BME280;56427;51.580;4.656;2022-08-02T05:07:24;101717.41;;;17.70;74.46
69306;BME280;56427;51.580;4.656;2022-08-02T05:09:49;101716.69;;;18.38;72.32
69306;BME280;56427;51.580;4.656;2022-08-02T05:12:15;101709.59;;;18.81;70.11
69306;BME280;56427;51.580;4.656;2022-08-02T05:14:40;101714.94;;;18.20;72.48
69306;BME280;56427;51.580;4.656;2022-08-02T05:17:05;101717.19;;;18.42;72.58
69306;BME280;56427;51.580;4.656;2022-08-02T05:19:30;101711.41;;;18.30;74.18
69306;BME280;56427;51.580;4.656;2022-08-02T05:21:56;101710.34;;;18.49;73.58
69306;BME280;56427;51.580;4.656;2022-08-02T05:24:21;101721.06;;;17.77;76.50
69306;BME280;56427;51.580;4.656;2022-08-02T05:26:46;101722.84;;;18.20;74.89
69306;BME280;56427;51.580;4.656;2022-08-02T05:29:12;101723.13;;;18.86;73.78
69306;BME280;56427;51.580;4.656;2022-08-02T05:31:37;101721.91;;;19.48;70.75
69306;BME280;56427;51.580;4.656;2022-08-02T05:34:02;101724.19;;;18.67;75.65
69306;BME280;56427;51.580;4.656;2022-08-02T05:36:28;101726.13;;;19.00;74.35
69306;BME280;56427;51.580;4.656;2022-08-02T05:38:53;101733.03;;;18.58;76.26
69306;BME280;56427;51.580;4.656;2022-08-02T05:41:19;101727.66;;;18.76;75.93
69306;BME280;56427;51.580;4.656;2022-08-02T05:43:45;101725.94;;;18.93;76.01
69306;BME280;56427;51.580;4.656;2022-08-02T05:46:11;101717.59;;;19.39;74.97
69306;BME280;56427;51.580;4.656;2022-08-02T05:48:37;101714.31;;;19.20;75.40
69306;BME280;56427;51.580;4.656;2022-08-02T05:51:05;101724.03;;;19.69;74.26
69306;BME280;56427;51.580;4.656;2022-08-02T05:53:45;101726.50;;;19.62;74.95
69306;BME280;56427;51.580;4.656;2022-08-02T05:56:23;101729.81;;;20.37;72.11
69306;BME280;56427;51.580;4.656;2022-08-02T05:59:00;101730.16;;;21.28;68.89
69306;BME280;56427;51.580;4.656;2022-08-02T06:01:38;101734.19;;;20.61;72.05
69306;BME280;56427;51.580;4.656;2022-08-02T06:04:09;101722.66;;;20.54;72.60
69306;BME280;56427;51.580;4.656;2022-08-02T06:06:36;101729.03;;;20.28;73.70
69306;BME280;56427;51.580;4.656;2022-08-02T06:09:22;101716.94;;;19.94;74.64
69306;BME280;56427;51.580;4.656;2022-08-02T06:11:50;101720.94;;;20.77;73.68
69306;BME280;56427;51.580;4.656;2022-08-02T06:14:17;101718.72;;;21.59;69.63
69306;BME280;56427;51.580;4.656;2022-08-02T06:16:44;101714.59;;;22.09;69.60
69306;BME280;56427;51.580;4.656;2022-08-02T06:19:13;101714.75;;;21.78;69.82
69306;BME280;56427;51.580;4.656;2022-08-02T06:21:41;101717.75;;;22.49;67.97
69306;BME280;56427;51.580;4.656;2022-08-02T06:24:08;101713.13;;;22.73;67.98
69306;BME280;56427;51.580;4.656;2022-08-02T06:26:35;101714.28;;;21.89;70.46
69306;BME280;56427;51.580;4.656;2022-08-02T06:29:01;101720.25;;;22.36;70.24
69306;BME280;56427;51.580;4.656;2022-08-02T06:31:26;101717.75;;;21.90;72.91
69306;BME280;56427;51.580;4.656;2022-08-02T06:33:52;101720.69;;;21.95;73.22
69306;BME280;56427;51.580;4.656;2022-08-02T06:39:30;101730.44;;;22.54;71.29
69306;BME280;56427;51.580;4.656;2022-08-02T06:41:58;101733.41;;;21.76;75.33
69306;BME280;56427;51.580;4.656;2022-08-02T06:44:27;101725.44;;;22.29;74.45
69306;BME280;56427;51.580;4.656;2022-08-02T06:46:53;101714.19;;;23.15;70.29
69306;BME280;56427;51.580;4.656;2022-08-02T06:49:18;101726.34;;;22.73;71.43
69306;BME280;56427;51.580;4.656;2022-08-02T06:51:44;101719.41;;;22.87;72.41
69306;BME280;56427;51.580;4.656;2022-08-02T06:54:09;101716.31;;;22.83;72.65
69306;BME280;56427;51.580;4.656;2022-08-02T06:56:35;101721.34;;;22.78;72.13
69306;BME280;56427;51.580;4.656;2022-08-02T06:59:00;101710.56;;;23.16;72.62
69306;BME280;56427;51.580;4.656;2022-08-02T07:01:26;101717.03;;;22.26;74.65
69306;BME280;56427;51.580;4.656;2022-08-02T07:03:51;101719.69;;;22.26;75.96
69306;BME280;56427;51.580;4.656;2022-08-02T07:06:17;101716.50;;;22.30;76.30
69306;BME280;56427;51.580;4.656;2022-08-02T07:08:42;101719.41;;;22.50;75.43
69306;BME280;56427;51.580;4.656;2022-08-02T07:11:08;101716.06;;;23.00;74.20
69306;BME280;56427;51.580;4.656;2022-08-02T07:13:34;101703.31;;;23.53;71.89
69306;BME280;56427;51.580;4.656;2022-08-02T07:16:01;101712.94;;;24.31;69.15
69306;BME280;56427;51.580;4.656;2022-08-02T07:18:26;101708.34;;;24.04;68.91
69306;BME280;56427;51.580;4.656;2022-08-02T07:20:53;101707.97;;;23.51;73.00
69306;BME280;56427;51.580;4.656;2022-08-02T07:23:18;101705.94;;;24.10;69.74
69306;BME280;56427;51.580;4.656;2022-08-02T07:25:44;101715.34;;;24.19;69.58
69306;BME280;56427;51.580;4.656;2022-08-02T07:28:11;101711.16;;;23.96;70.25
69306;BME280;56427;51.580;4.656;2022-08-02T07:30:36;101713.78;;;24.31;68.96
69306;BME280;56427;51.580;4.656;2022-08-02T07:33:02;101710.84;;;23.28;71.60
69306;BME280;56427;51.580;4.656;2022-08-02T07:35:28;101704.75;;;23.56;71.55
69306;BME280;56427;51.580;4.656;2022-08-02T07:37:53;101717.84;;;24.27;68.61
69306;BME280;56427;51.580;4.656;2022-08-02T07:40:19;101711.75;;;24.33;69.08
69306;BME280;56427;51.580;4.656;2022-08-02T07:42:46;101715.00;;;23.87;70.46
69306;BME280;56427;51.580;4.656;2022-08-02T07:45:13;101726.63;;;24.76;66.90
69306;BME280;56427;51.580;4.656;2022-08-02T07:47:40;101725.63;;;24.35;69.05
69306;BME280;56427;51.580;4.656;2022-08-02T07:50:06;101726.34;;;24.16;68.93
69306;BME280;56427;51.580;4.656;2022-08-02T07:52:32;101725.84;;;25.02;66.19
69306;BME280;56427;51.580;4.656;2022-08-02T07:54:58;101719.44;;;24.70;66.38
69306;BME280;56427;51.580;4.656;2022-08-02T07:57:23;101719.88;;;24.80;65.63
69306;BME280;56427;51.580;4.656;2022-08-02T07:59:49;101704.84;;;25.34;63.92
69306;BME280;56427;51.580;4.656;2022-08-02T08:02:15;101714.38;;;25.88;62.70
69306;BME280;56427;51.580;4.656;2022-08-02T08:04:41;101727.09;;;26.52;60.69
69306;BME280;56427;51.580;4.656;2022-08-02T08:07:06;101728.06;;;25.92;61.58
69306;BME280;56427;51.580;4.656;2022-08-02T08:09:34;101723.22;;;26.41;59.07
69306;BME280;56427;51.580;4.656;2022-08-02T08:12:11;101716.69;;;25.25;59.00
69306;BME280;56427;51.580;4.656;2022-08-02T08:14:38;101717.47;;;26.51;55.49
69306;BME280;56427;51.580;4.656;2022-08-02T08:17:04;101717.44;;;26.12;54.13
69306;BME280;56427;51.580;4.656;2022-08-02T08:19:30;101720.13;;;25.79;53.30
69306;BME280;56427;51.580;4.656;2022-08-02T08:21:55;101713.31;;;26.16;52.79
69306;BME280;56427;51.580;4.656;2022-08-02T08:24:24;101710.94;;;26.47;50.86
69306;BME280;56427;51.580;4.656;2022-08-02T08:26:49;101710.94;;;25.81;51.40
69306;BME280;56427;51.580;4.656;2022-08-02T08:29:14;101708.69;;;25.71;49.88
69306;BME280;56427;51.580;4.656;2022-08-02T08:31:39;101722.25;;;26.35;50.09
69306;BME280;56427;51.580;4.656;2022-08-02T08:34:05;101715.56;;;26.19;50.24
69306;BME280;56427;51.580;4.656;2022-08-02T08:36:30;101711.84;;;26.27;52.18
69306;BME280;56427;51.580;4.656;2022-08-02T08:38:56;101716.91;;;26.42;54.92
69306;BME280;56427;51.580;4.656;2022-08-02T08:41:21;101714.50;;;26.72;52.47
69306;BME280;56427;51.580;4.656;2022-08-02T08:43:46;101709.53;;;27.40;51.45
69306;BME280;56427;51.580;4.656;2022-08-02T08:46:29;101703.69;;;27.24;50.02
69306;BME280;56427;51.580;4.656;2022-08-02T08:49:17;101693.41;;;26.71;49.24
69306;BME280;56427;51.580;4.656;2022-08-02T08:51:44;101700.53;;;27.59;47.75
69306;BME280;56427;51.580;4.656;2022-08-02T08:54:14;101697.13;;;27.52;47.16
69306;BME280;56427;51.580;4.656;2022-08-02T08:56:41;101695.13;;;26.90;47.82
69306;BME280;56427;51.580;4.656;2022-08-02T08:59:07;101692.34;;;26.40;47.52
69306;BME280;56427;51.580;4.656;2022-08-02T09:01:33;101691.66;;;27.15;45.39
69306;BME280;56427;51.580;4.656;2022-08-02T09:03:58;101684.97;;;27.75;43.93
69306;BME280;56427;51.580;4.656;2022-08-02T09:06:24;101700.81;;;27.95;43.95
69306;BME280;56427;51.580;4.656;2022-08-02T09:08:49;101695.81;;;27.11;42.46
69306;BME280;56427;51.580;4.656;2022-08-02T09:11:16;101694.16;;;27.60;43.42
69306;BME280;56427;51.580;4.656;2022-08-02T09:13:56;101691.88;;;28.01;41.64
69306;BME280;56427;51.580;4.656;2022-08-02T09:16:33;101697.28;;;26.75;44.83
69306;BME280;56427;51.580;4.656;2022-08-02T09:19:00;101702.16;;;27.60;42.15
69306;BME280;56427;51.580;4.656;2022-08-02T09:21:34;101699.84;;;28.38;40.50
69306;BME280;56427;51.580;4.656;2022-08-02T09:24:00;101699.72;;;28.63;40.29
69306;BME280;56427;51.580;4.656;2022-08-02T09:26:25;101709.72;;;28.37;38.95
69306;BME280;56427;51.580;4.656;2022-08-02T09:28:59;101706.19;;;27.88;38.49
69306;BME280;56427;51.580;4.656;2022-08-02T09:31:25;101698.09;;;29.16;37.09
69306;BME280;56427;51.580;4.656;2022-08-02T09:33:55;101711.06;;;28.77;38.05
69306;BME280;56427;51.580;4.656;2022-08-02T09:36:22;101702.63;;;28.31;37.54
69306;BME280;56427;51.580;4.656;2022-08-02T09:38:59;101704.94;;;28.27;37.37
69306;BME280;56427;51.580;4.656;2022-08-02T09:41:29;101698.09;;;29.04;35.56
69306;BME280;56427;51.580;4.656;2022-08-02T09:43:56;101705.81;;;28.52;37.64
69306;BME280;56427;51.580;4.656;2022-08-02T09:46:24;101707.44;;;28.83;36.65
69306;BME280;56427;51.580;4.656;2022-08-02T09:48:52;101701.16;;;28.66;37.28
69306;BME280;56427;51.580;4.656;2022-08-02T09:51:26;101694.16;;;28.34;36.87
69306;BME280;56427;51.580;4.656;2022-08-02T09:53:57;101705.81;;;28.52;37.17
69306;BME280;56427;51.580;4.656;2022-08-02T09:56:24;101699.66;;;28.51;36.74
69306;BME280;56427;51.580;4.656;2022-08-02T09:58:51;101706.28;;;28.79;37.60
69306;BME280;56427;51.580;4.656;2022-08-02T10:01:29;101706.91;;;27.77;38.07
69306;BME280;56427;51.580;4.656;2022-08-02T10:04:00;101704.97;;;28.39;37.77
69306;BME280;56427;51.580;4.656;2022-08-02T10:06:27;101703.88;;;28.28;37.34
69306;BME280;56427;51.580;4.656;2022-08-02T10:08:53;101703.97;;;27.85;39.39
69306;BME280;56427;51.580;4.656;2022-08-02T10:11:20;101702.63;;;26.75;41.38
69306;BME280;56427;51.580;4.656;2022-08-02T10:13:46;101705.25;;;27.39;39.89
69306;BME280;56427;51.580;4.656;2022-08-02T10:16:14;101711.69;;;27.49;36.96
69306;BME280;56427;51.580;4.656;2022-08-02T10:18:40;101702.25;;;28.09;35.35
69306;BME280;56427;51.580;4.656;2022-08-02T10:21:10;101706.88;;;27.58;35.64
69306;BME280;56427;51.580;4.656;2022-08-02T10:23:38;101719.19;;;28.03;36.83
69306;BME280;56427;51.580;4.656;2022-08-02T10:26:06;101711.97;;;27.85;35.29
69306;BME280;56427;51.580;4.656;2022-08-02T10:28:32;101705.69;;;28.46;36.49
69306;BME280;56427;51.580;4.656;2022-08-02T10:31:02;101710.06;;;29.02;36.53
69306;BME280;56427;51.580;4.656;2022-08-02T10:46:23;101690.59;;;28.22;37.23
69306;BME280;56427;51.580;4.656;2022-08-02T10:49:08;101690.19;;;28.06;36.50
69306;BME280;56427;51.580;4.656;2022-08-02T10:56:57;101701.41;;;27.53;38.41
69306;BME280;56427;51.580;4.656;2022-08-02T10:59:30;101697.72;;;27.54;38.91
69306;BME280;56427;51.580;4.656;2022-08-02T11:01:59;101679.47;;;27.95;37.86
69306;BME280;56427;51.580;4.656;2022-08-02T11:09:35;101692.81;;;28.74;37.06
69306;BME280;56427;51.580;4.656;2022-08-02T11:14:27;101688.16;;;28.69;37.03
69306;BME280;56427;51.580;4.656;2022-08-02T11:19:22;101689.97;;;28.38;37.68
69306;BME280;56427;51.580;4.656;2022-08-02T11:22:04;101694.97;;;29.19;37.01
69306;BME280;56427;51.580;4.656;2022-08-02T11:24:32;101688.63;;;28.48;37.86
69306;BME280;56427;51.580;4.656;2022-08-02T11:27:00;101672.03;;;28.99;37.20
69306;BME280;56427;51.580;4.656;2022-08-02T11:29:36;101670.22;;;29.00;36.96
69306;BME280;56427;51.580;4.656;2022-08-02T11:32:03;101678.31;;;28.51;37.10
69306;BME280;56427;51.580;4.656;2022-08-02T12:08:07;101668.22;;;28.84;35.20
69306;BME280;56427;51.580;4.656;2022-08-02T12:10:33;101662.31;;;28.93;36.25
69306;BME280;56427;51.580;4.656;2022-08-02T12:12:59;101669.97;;;29.02;37.27
69306;BME280;56427;51.580;4.656;2022-08-02T12:15:36;101663.69;;;28.96;37.11
69306;BME280;56427;51.580;4.656;2022-08-02T12:18:03;101680.56;;;29.08;38.01
69306;BME280;56427;51.580;4.656;2022-08-02T12:24:13;101666.03;;;29.51;38.13
69306;BME280;56427;51.580;4.656;2022-08-02T12:26:50;101656.13;;;29.64;36.71
69306;BME280;56427;51.580;4.656;2022-08-02T12:29:15;101664.06;;;29.47;38.15
69306;BME280;56427;51.580;4.656;2022-08-02T12:55:24;101649.16;;;30.15;39.26
69306;BME280;56427;51.580;4.656;2022-08-02T12:58:08;101644.84;;;29.85;39.38
69306;BME280;56427;51.580;4.656;2022-08-02T13:00:36;101641.03;;;29.46;41.15
69306;BME280;56427;51.580;4.656;2022-08-02T13:03:02;101641.47;;;28.72;42.39
69306;BME280;56427;51.580;4.656;2022-08-02T13:05:29;101638.25;;;28.93;41.83
69306;BME280;56427;51.580;4.656;2022-08-02T13:07:56;101634.91;;;29.98;40.06
69306;BME280;56427;51.580;4.656;2022-08-02T13:10:22;101640.53;;;29.72;40.08
69306;BME280;56427;51.580;4.656;2022-08-02T13:12:48;101626.25;;;29.55;41.60
69306;BME280;56427;51.580;4.656;2022-08-02T13:15:15;101625.63;;;30.17;39.91
69306;BME280;56427;51.580;4.656;2022-08-02T13:17:41;101626.59;;;30.28;41.09
69306;BME280;56427;51.580;4.656;2022-08-02T13:20:07;101622.84;;;29.71;41.72
69306;BME280;56427;51.580;4.656;2022-08-02T13:22:34;101615.63;;;29.72;41.77
69306;BME280;56427;51.580;4.656;2022-08-02T13:24:59;101615.50;;;29.90;40.94
69306;BME280;56427;51.580;4.656;2022-08-02T13:27:25;101617.56;;;30.00;41.70
69306;BME280;56427;51.580;4.656;2022-08-02T13:29:52;101621.19;;;29.94;42.45
69306;BME280;56427;51.580;4.656;2022-08-02T13:32:18;101619.94;;;30.14;41.54
69306;BME280;56427;51.580;4.656;2022-08-02T13:34:44;101619.41;;;30.00;42.78
69306;BME280;56427;51.580;4.656;2022-08-02T13:37:09;101611.72;;;30.03;43.03
69306;BME280;56427;51.580;4.656;2022-08-02T13:39:34;101605.97;;;30.40;41.76
69306;BME280;56427;51.580;4.656;2022-08-02T13:42:00;101611.63;;;29.58;42.88
69306;BME280;56427;51.580;4.656;2022-08-02T13:44:25;101603.94;;;29.61;43.19
69306;BME280;56427;51.580;4.656;2022-08-02T13:46:50;101602.34;;;30.18;42.30
69306;BME280;56427;51.580;4.656;2022-08-02T13:49:16;101599.25;;;30.09;42.63
69306;BME280;56427;51.580;4.656;2022-08-02T13:51:41;101586.56;;;30.33;42.62
69306;BME280;56427;51.580;4.656;2022-08-02T13:54:06;101591.41;;;30.36;42.23
69306;BME280;56427;51.580;4.656;2022-08-02T13:56:32;101586.22;;;29.84;42.96
69306;BME280;56427;51.580;4.656;2022-08-02T13:58:57;101586.88;;;29.91;43.58
69306;BME280;56427;51.580;4.656;2022-08-02T14:01:25;101587.69;;;29.91;43.92
69306;BME280;56427;51.580;4.656;2022-08-02T14:03:50;101578.94;;;30.25;43.16
69306;BME280;56427;51.580;4.656;2022-08-02T14:06:18;101564.94;;;30.06;43.48
69306;BME280;56427;51.580;4.656;2022-08-02T14:08:44;101572.25;;;30.27;43.67
69306;BME280;56427;51.580;4.656;2022-08-02T14:11:09;101572.78;;;30.58;43.93
69306;BME280;56427;51.580;4.656;2022-08-02T14:13:34;101573.97;;;30.17;44.54
69306;BME280;56427;51.580;4.656;2022-08-02T14:16:00;101569.81;;;29.68;44.97
69306;BME280;56427;51.580;4.656;2022-08-02T14:18:25;101568.75;;;29.17;45.80
69306;BME280;56427;51.580;4.656;2022-08-02T14:20:50;101562.94;;;30.30;45.08
69306;BME280;56427;51.580;4.656;2022-08-02T14:23:16;101557.44;;;29.91;45.13
69306;BME280;56427;51.580;4.656;2022-08-02T14:25:41;101568.38;;;30.35;45.13
69306;BME280;56427;51.580;4.656;2022-08-02T14:28:07;101563.38;;;30.73;44.29
69306;BME280;56427;51.580;4.656;2022-08-02T14:30:33;101552.00;;;30.32;44.70
69306;BME280;56427;51.580;4.656;2022-08-02T14:32:59;101551.56;;;29.77;45.74